sensor_id;sensor_type;location;lat;lon;timestamp;P1;durP1;ratioP1;P2;durP2;ratioP2
34639;SDS011;22600;48.186;11.526;2022-10-16T00:01:56;0.80;;;0.80;;
34639;SDS011;22600;48.186;11.526;2022-10-16T00:04:22;0.88;;;0.70;;
34639;SDS011;22600;48.186;11.526;2022-10-16T00:06:47;0.90;;;0.68;;
34639;SDS011;22600;48.186;11.526;2022-10-16T00:09:13;0.80;;;0.73;;
34639;SDS011;22600;48.186;11.526;2022-10-16T00:11:39;1.05;;;0.82;;
34639;SDS011;22600;48.186;11.526;2022-10-16T00:14:06;1.20;;;0.70;;
34639;SDS011;22600;48.186;11.526;2022-10-16T00:16:35;0.95;;;0.80;;
34639;SDS011;22600;48.186;11.526;2022-10-16T00:19:00;1.00;;;0.88;;
34639;SDS011;22600;48.186;11.526;2022-10-16T00:21:27;0.93;;;0.70;;
34639;SDS011;22600;48.186;11.526;2022-10-16T00:23:55;0.82;;;0.70;;
34639;SDS011;22600;48.186;11.526;2022-10-16T00:26:24;1.35;;;0.82;;
34639;SDS011;22600;48.186;11.526;2022-10-16T00:28:50;0.98;;;0.88;;
34639;SDS011;22600;48.186;11.526;2022-10-16T00:31:17;1.10;;;0.80;;
34639;SDS011;22600;48.186;11.526;2022-10-16T00:33:44;0.88;;;0.70;;
34639;SDS011;22600;48.186;11.526;2022-10-16T00:36:10;0.93;;;0.70;;
34639;SDS011;22600;48.186;11.526;2022-10-16T00:38:38;0.80;;;0.60;;
34639;SDS011;22600;48.186;11.526;2022-10-16T00:41:05;1.10;;;0.90;;
34639;SDS011;22600;48.186;11.526;2022-10-16T00:43:41;1.10;;;0.70;;
34639;SDS011;22600;48.186;11.526;2022-10-16T00:48:45;1.17;;;0.60;;
34639;SDS011;22600;48.186;11.526;2022-10-16T00:51:14;0.95;;;0.75;;
34639;SDS011;22600;48.186;11.526;2022-10-16T00:53:42;0.85;;;0.65;;
34639;SDS011;22600;48.186;11.526;2022-10-16T00:56:09;0.98;;;0.80;;
34639;SDS011;22600;48.186;11.526;2022-10-16T00:58:34;0.93;;;0.70;;
34639;SDS011;22600;48.186;11.526;2022-10-16T01:01:00;1.10;;;0.77;;
34639;SDS011;22600;48.186;11.526;2022-10-16T01:03:33;0.90;;;0.77;;
34639;SDS011;22600;48.186;11.526;2022-10-16T01:14:32;1.00;;;0.70;;
34639;SDS011;22600;48.186;11.526;2022-10-16T01:17:06;1.35;;;0.88;;
34639;SDS011;22600;48.186;11.526;2022-10-16T01:22:05;0.95;;;0.80;;
34639;SDS011;22600;48.186;11.526;2022-10-16T01:35:26;0.80;;;0.68;;
34639;SDS011;22600;48.186;11.526;2022-10-16T01:40:20;0.82;;;0.70;;
34639;SDS011;22600;48.186;11.526;2022-10-16T01:42:52;1.00;;;0.70;;
34639;SDS011;22600;48.186;11.526;2022-10-16T01:45:21;1.30;;;0.77;;
34639;SDS011;22600;48.186;11.526;2022-10-16T01:47:47;0.90;;;0.73;;
34639;SDS011;22600;48.186;11.526;2022-10-16T01:50:15;1.05;;;0.80;;
34639;SDS011;22600;48.186;11.526;2022-10-16T01:52:43;0.90;;;0.75;;
34639;SDS011;22600;48.186;11.526;2022-10-16T01:55:13;0.90;;;0.70;;
34639;SDS011;22600;48.186;11.526;2022-10-16T01:57:46;1.05;;;0.70;;
34639;SDS011;22600;48.186;11.526;2022-10-16T02:00:14;1.63;;;1.00;;
34639;SDS011;22600;48.186;11.526;2022-10-16T02:02:45;1.10;;;0.80;;
34639;SDS011;22600;48.186;11.526;2022-10-16T02:08:12;1.10;;;0.80;;
34639;SDS011;22600;48.186;11.526;2022-10-16T02:10:38;1.02;;;0.80;;
34639;SDS011;22600;48.186;11.526;2022-10-16T02:13:50;1.10;;;0.73;;
34639;SDS011;22600;48.186;11.526;2022-10-16T02:15:59;0.73;;;0.65;;
34639;SDS011;22600;48.186;11.526;2022-10-16T02:18:25;0.70;;;0.65;;
34639;SDS011;22600;48.186;11.526;2022-10-16T02:21:02;1.23;;;0.95;;
34639;SDS011;22600;48.186;11.526;2022-10-16T02:26:27;0.73;;;0.70;;
34639;SDS011;22600;48.186;11.526;2022-10-16T02:29:14;0.73;;;0.70;;
34639;SDS011;22600;48.186;11.526;2022-10-16T02:34:12;1.15;;;0.63;;
34639;SDS011;22600;48.186;11.526;2022-10-16T02:36:40;1.52;;;0.68;;
34639;SDS011;22600;48.186;11.526;2022-10-16T02:39:08;1.08;;;0.77;;
34639;SDS011;22600;48.186;11.526;2022-10-16T02:41:34;0.85;;;0.63;;
34639;SDS011;22600;48.186;11.526;2022-10-16T02:44:00;0.80;;;0.70;;
34639;SDS011;22600;48.186;11.526;2022-10-16T02:46:25;0.80;;;0.63;;
34639;SDS011;22600;48.186;11.526;2022-10-16T02:48:51;1.05;;;0.80;;
34639;SDS011;22600;48.186;11.526;2022-10-16T02:51:16;0.93;;;0.70;;
34639;SDS011;22600;48.186;11.526;2022-10-16T02:53:42;0.85;;;0.70;;
34639;SDS011;22600;48.186;11.526;2022-10-16T02:56:08;1.02;;;0.80;;
34639;SDS011;22600;48.186;11.526;2022-10-16T02:58:33;0.75;;;0.70;;
34639;SDS011;22600;48.186;11.526;2022-10-16T03:00:59;1.40;;;0.80;;
34639;SDS011;22600;48.186;11.526;2022-10-16T03:03:24;0.98;;;0.73;;
34639;SDS011;22600;48.186;11.526;2022-10-16T03:05:50;0.90;;;0.70;;
34639;SDS011;22600;48.186;11.526;2022-10-16T03:08:16;1.02;;;0.75;;
34639;SDS011;22600;48.186;11.526;2022-10-16T03:10:42;0.80;;;0.80;;
34639;SDS011;22600;48.186;11.526;2022-10-16T03:13:07;1.10;;;0.80;;
34639;SDS011;22600;48.186;11.526;2022-10-16T03:15:33;0.90;;;0.70;;
34639;SDS011;22600;48.186;11.526;2022-10-16T03:17:59;0.93;;;0.70;;
34639;SDS011;22600;48.186;11.526;2022-10-16T03:20:24;1.15;;;0.75;;
34639;SDS011;22600;48.186;11.526;2022-10-16T03:22:51;0.80;;;0.70;;
34639;SDS011;22600;48.186;11.526;2022-10-16T03:25:16;0.80;;;0.70;;
34639;SDS011;22600;48.186;11.526;2022-10-16T03:27:42;0.88;;;0.70;;
34639;SDS011;22600;48.186;11.526;2022-10-16T03:30:08;1.05;;;0.70;;
34639;SDS011;22600;48.186;11.526;2022-10-16T03:32:34;0.60;;;0.60;;
34639;SDS011;22600;48.186;11.526;2022-10-16T03:34:59;0.88;;;0.70;;
34639;SDS011;22600;48.186;11.526;2022-10-16T03:37:25;1.00;;;0.70;;
34639;SDS011;22600;48.186;11.526;2022-10-16T03:39:51;0.90;;;0.70;;
34639;SDS011;22600;48.186;11.526;2022-10-16T03:42:17;0.80;;;0.70;;
34639;SDS011;22600;48.186;11.526;2022-10-16T03:44:42;0.70;;;0.63;;
34639;SDS011;22600;48.186;11.526;2022-10-16T03:47:08;0.93;;;0.75;;
34639;SDS011;22600;48.186;11.526;2022-10-16T03:49:33;0.82;;;0.75;;
34639;SDS011;22600;48.186;11.526;2022-10-16T03:51:59;0.80;;;0.70;;
34639;SDS011;22600;48.186;11.526;2022-10-16T03:54:24;0.90;;;0.70;;
34639;SDS011;22600;48.186;11.526;2022-10-16T03:56:50;1.52;;;0.80;;
34639;SDS011;22600;48.186;11.526;2022-10-16T03:59:16;0.75;;;0.75;;
34639;SDS011;22600;48.186;11.526;2022-10-16T04:01:41;0.90;;;0.70;;
34639;SDS011;22600;48.186;11.526;2022-10-16T04:04:07;0.85;;;0.73;;
34639;SDS011;22600;48.186;11.526;2022-10-16T04:06:32;1.00;;;0.70;;
34639;SDS011;22600;48.186;11.526;2022-10-16T04:08:58;0.85;;;0.70;;
34639;SDS011;22600;48.186;11.526;2022-10-16T04:11:23;0.95;;;0.80;;
34639;SDS011;22600;48.186;11.526;2022-10-16T04:13:49;1.02;;;0.80;;
34639;SDS011;22600;48.186;11.526;2022-10-16T04:16:15;1.05;;;0.80;;
34639;SDS011;22600;48.186;11.526;2022-10-16T04:18:40;0.85;;;0.70;;
34639;SDS011;22600;48.186;11.526;2022-10-16T04:21:06;1.02;;;0.75;;
34639;SDS011;22600;48.186;11.526;2022-10-16T04:23:32;1.17;;;0.80;;
34639;SDS011;22600;48.186;11.526;2022-10-16T04:25:58;0.80;;;0.60;;
34639;SDS011;22600;48.186;11.526;2022-10-16T04:28:24;0.88;;;0.75;;
34639;SDS011;22600;48.186;11.526;2022-10-16T04:30:50;0.85;;;0.70;;
34639;SDS011;22600;48.186;11.526;2022-10-16T04:33:15;0.90;;;0.70;;
34639;SDS011;22600;48.186;11.526;2022-10-16T04:35:41;0.95;;;0.70;;
34639;SDS011;22600;48.186;11.526;2022-10-16T04:38:06;0.77;;;0.65;;
34639;SDS011;22600;48.186;11.526;2022-10-16T04:40:32;0.80;;;0.70;;
34639;SDS011;22600;48.186;11.526;2022-10-16T04:42:58;0.82;;;0.63;;
34639;SDS011;22600;48.186;11.526;2022-10-16T04:45:24;0.90;;;0.75;;
34639;SDS011;22600;48.186;11.526;2022-10-16T04:47:50;0.68;;;0.60;;
34639;SDS011;22600;48.186;11.526;2022-10-16T04:50:15;0.75;;;0.70;;
34639;SDS011;22600;48.186;11.526;2022-10-16T04:52:41;0.63;;;0.63;;
34639;SDS011;22600;48.186;11.526;2022-10-16T04:55:07;0.80;;;0.70;;
34639;SDS011;22600;48.186;11.526;2022-10-16T04:57:32;0.60;;;0.60;;
34639;SDS011;22600;48.186;11.526;2022-10-16T04:59:58;0.63;;;0.50;;
34639;SDS011;22600;48.186;11.526;2022-10-16T05:02:24;0.90;;;0.73;;
34639;SDS011;22600;48.186;11.526;2022-10-16T05:04:50;0.60;;;0.50;;
34639;SDS011;22600;48.186;11.526;2022-10-16T05:07:16;1.00;;;0.77;;
34639;SDS011;22600;48.186;11.526;2022-10-16T05:09:41;1.33;;;0.70;;
34639;SDS011;22600;48.186;11.526;2022-10-16T05:12:07;0.90;;;0.70;;
34639;SDS011;22600;48.186;11.526;2022-10-16T05:14:33;0.93;;;0.60;;
34639;SDS011;22600;48.186;11.526;2022-10-16T05:16:59;0.80;;;0.70;;
34639;SDS011;22600;48.186;11.526;2022-10-16T05:19:25;0.77;;;0.70;;
34639;SDS011;22600;48.186;11.526;2022-10-16T05:21:50;0.88;;;0.60;;
34639;SDS011;22600;48.186;11.526;2022-10-16T05:24:16;0.88;;;0.75;;
34639;SDS011;22600;48.186;11.526;2022-10-16T05:26:41;1.58;;;0.90;;
34639;SDS011;22600;48.186;11.526;2022-10-16T05:29:07;0.70;;;0.70;;
34639;SDS011;22600;48.186;11.526;2022-10-16T05:31:33;0.90;;;0.80;;
34639;SDS011;22600;48.186;11.526;2022-10-16T05:33:59;0.77;;;0.70;;
34639;SDS011;22600;48.186;11.526;2022-10-16T05:36:25;0.80;;;0.68;;
34639;SDS011;22600;48.186;11.526;2022-10-16T05:38:51;0.70;;;0.70;;
34639;SDS011;22600;48.186;11.526;2022-10-16T05:41:16;0.95;;;0.75;;
34639;SDS011;22600;48.186;11.526;2022-10-16T05:43:46;0.70;;;0.55;;
34639;SDS011;22600;48.186;11.526;2022-10-16T05:46:15;1.10;;;0.70;;
34639;SDS011;22600;48.186;11.526;2022-10-16T05:48:41;1.00;;;0.70;;
34639;SDS011;22600;48.186;11.526;2022-10-16T05:51:09;0.82;;;0.60;;
34639;SDS011;22600;48.186;11.526;2022-10-16T05:53:37;1.05;;;0.70;;
34639;SDS011;22600;48.186;11.526;2022-10-16T05:56:04;0.90;;;0.77;;
34639;SDS011;22600;48.186;11.526;2022-10-16T05:58:32;0.70;;;0.60;;
34639;SDS011;22600;48.186;11.526;2022-10-16T06:01:04;0.90;;;0.80;;
34639;SDS011;22600;48.186;11.526;2022-10-16T06:03:32;1.70;;;0.68;;
34639;SDS011;22600;48.186;11.526;2022-10-16T06:05:58;0.98;;;0.70;;
34639;SDS011;22600;48.186;11.526;2022-10-16T06:08:24;0.60;;;0.60;;
34639;SDS011;22600;48.186;11.526;2022-10-16T06:10:59;0.68;;;0.50;;
34639;SDS011;22600;48.186;11.526;2022-10-16T06:13:29;0.77;;;0.68;;
34639;SDS011;22600;48.186;11.526;2022-10-16T06:15:56;0.80;;;0.60;;
34639;SDS011;22600;48.186;11.526;2022-10-16T06:18:23;0.70;;;0.60;;
34639;SDS011;22600;48.186;11.526;2022-10-16T06:20:49;1.05;;;0.85;;
34639;SDS011;22600;48.186;11.526;2022-10-16T06:23:14;0.75;;;0.65;;
34639;SDS011;22600;48.186;11.526;2022-10-16T06:25:40;0.80;;;0.60;;
34639;SDS011;22600;48.186;11.526;2022-10-16T06:28:05;0.68;;;0.55;;
34639;SDS011;22600;48.186;11.526;2022-10-16T06:30:31;0.63;;;0.57;;
34639;SDS011;22600;48.186;11.526;2022-10-16T06:32:56;0.80;;;0.68;;
34639;SDS011;22600;48.186;11.526;2022-10-16T06:35:22;1.00;;;0.65;;
34639;SDS011;22600;48.186;11.526;2022-10-16T06:37:48;1.08;;;0.80;;
34639;SDS011;22600;48.186;11.526;2022-10-16T06:40:14;0.85;;;0.73;;
34639;SDS011;22600;48.186;11.526;2022-10-16T06:42:40;0.63;;;0.63;;
34639;SDS011;22600;48.186;11.526;2022-10-16T06:45:06;0.93;;;0.70;;
34639;SDS011;22600;48.186;11.526;2022-10-16T06:47:32;0.95;;;0.73;;
34639;SDS011;22600;48.186;11.526;2022-10-16T06:49:57;0.75;;;0.70;;
34639;SDS011;22600;48.186;11.526;2022-10-16T06:52:23;0.80;;;0.70;;
34639;SDS011;22600;48.186;11.526;2022-10-16T06:54:49;1.05;;;0.70;;
34639;SDS011;22600;48.186;11.526;2022-10-16T06:57:15;0.68;;;0.60;;
34639;SDS011;22600;48.186;11.526;2022-10-16T06:59:41;0.60;;;0.52;;
34639;SDS011;22600;48.186;11.526;2022-10-16T07:02:07;1.00;;;0.80;;
34639;SDS011;22600;48.186;11.526;2022-10-16T07:04:35;0.82;;;0.70;;
34639;SDS011;22600;48.186;11.526;2022-10-16T07:07:01;0.77;;;0.70;;
34639;SDS011;22600;48.186;11.526;2022-10-16T07:09:26;0.52;;;0.52;;
34639;SDS011;22600;48.186;11.526;2022-10-16T07:11:52;0.70;;;0.70;;
34639;SDS011;22600;48.186;11.526;2022-10-16T07:14:18;0.90;;;0.70;;
34639;SDS011;22600;48.186;11.526;2022-10-16T07:16:45;1.13;;;0.73;;
34639;SDS011;22600;48.186;11.526;2022-10-16T07:19:11;0.80;;;0.70;;
34639;SDS011;22600;48.186;11.526;2022-10-16T07:21:40;0.85;;;0.70;;
34639;SDS011;22600;48.186;11.526;2022-10-16T07:24:06;0.82;;;0.70;;
34639;SDS011;22600;48.186;11.526;2022-10-16T07:26:36;0.90;;;0.70;;
34639;SDS011;22600;48.186;11.526;2022-10-16T07:29:04;1.10;;;0.80;;
34639;SDS011;22600;48.186;11.526;2022-10-16T07:31:31;1.02;;;0.70;;
34639;SDS011;22600;48.186;11.526;2022-10-16T07:33:57;0.57;;;0.52;;
34639;SDS011;22600;48.186;11.526;2022-10-16T07:36:24;0.95;;;0.60;;
34639;SDS011;22600;48.186;11.526;2022-10-16T07:38:49;0.73;;;0.63;;
34639;SDS011;22600;48.186;11.526;2022-10-16T07:41:16;0.70;;;0.63;;
34639;SDS011;22600;48.186;11.526;2022-10-16T07:43:47;0.70;;;0.60;;
34639;SDS011;22600;48.186;11.526;2022-10-16T07:46:13;0.80;;;0.70;;
34639;SDS011;22600;48.186;11.526;2022-10-16T07:48:39;0.80;;;0.60;;
34639;SDS011;22600;48.186;11.526;2022-10-16T07:51:05;0.70;;;0.60;;
34639;SDS011;22600;48.186;11.526;2022-10-16T07:53:32;0.82;;;0.60;;
34639;SDS011;22600;48.186;11.526;2022-10-16T07:55:58;0.68;;;0.52;;
34639;SDS011;22600;48.186;11.526;2022-10-16T07:58:26;0.80;;;0.60;;
34639;SDS011;22600;48.186;11.526;2022-10-16T08:00:52;0.80;;;0.60;;
34639;SDS011;22600;48.186;11.526;2022-10-16T08:03:18;0.55;;;0.55;;
34639;SDS011;22600;48.186;11.526;2022-10-16T08:05:43;0.65;;;0.50;;
34639;SDS011;22600;48.186;11.526;2022-10-16T08:08:12;1.10;;;0.70;;
34639;SDS011;22600;48.186;11.526;2022-10-16T08:10:39;0.77;;;0.60;;
34639;SDS011;22600;48.186;11.526;2022-10-16T08:13:04;0.80;;;0.70;;
34639;SDS011;22600;48.186;11.526;2022-10-16T08:15:30;0.70;;;0.60;;
34639;SDS011;22600;48.186;11.526;2022-10-16T08:17:57;0.68;;;0.45;;
34639;SDS011;22600;48.186;11.526;2022-10-16T08:20:23;0.70;;;0.60;;
34639;SDS011;22600;48.186;11.526;2022-10-16T08:22:50;0.60;;;0.60;;
34639;SDS011;22600;48.186;11.526;2022-10-16T08:25:16;0.70;;;0.68;;
34639;SDS011;22600;48.186;11.526;2022-10-16T08:27:42;0.90;;;0.70;;
34639;SDS011;22600;48.186;11.526;2022-10-16T08:30:07;1.30;;;0.70;;
34639;SDS011;22600;48.186;11.526;2022-10-16T08:32:34;0.75;;;0.65;;
34639;SDS011;22600;48.186;11.526;2022-10-16T08:34:59;0.80;;;0.50;;
34639;SDS011;22600;48.186;11.526;2022-10-16T08:37:29;0.90;;;0.70;;
34639;SDS011;22600;48.186;11.526;2022-10-16T08:39:55;0.77;;;0.63;;
34639;SDS011;22600;48.186;11.526;2022-10-16T08:48:05;0.70;;;0.60;;
34639;SDS011;22600;48.186;11.526;2022-10-16T08:50:57;0.60;;;0.55;;
34639;SDS011;22600;48.186;11.526;2022-10-16T08:53:28;1.10;;;0.77;;
34639;SDS011;22600;48.186;11.526;2022-10-16T08:56:00;0.90;;;0.70;;
34639;SDS011;22600;48.186;11.526;2022-10-16T08:58:27;0.80;;;0.60;;
34639;SDS011;22600;48.186;11.526;2022-10-16T09:00:54;0.60;;;0.55;;
34639;SDS011;22600;48.186;11.526;2022-10-16T09:06:04;0.60;;;0.60;;
34639;SDS011;22600;48.186;11.526;2022-10-16T09:17:18;0.70;;;0.60;;
34639;SDS011;22600;48.186;11.526;2022-10-16T09:19:51;0.73;;;0.57;;
34639;SDS011;22600;48.186;11.526;2022-10-16T09:22:25;0.60;;;0.60;;
34639;SDS011;22600;48.186;11.526;2022-10-16T09:24:54;0.70;;;0.70;;
34639;SDS011;22600;48.186;11.526;2022-10-16T09:27:24;0.90;;;0.55;;
34639;SDS011;22600;48.186;11.526;2022-10-16T09:29:51;0.77;;;0.60;;
34639;SDS011;22600;48.186;11.526;2022-10-16T09:32:18;0.85;;;0.70;;
34639;SDS011;22600;48.186;11.526;2022-10-16T09:34:48;0.60;;;0.50;;
34639;SDS011;22600;48.186;11.526;2022-10-16T09:37:18;0.90;;;0.60;;
34639;SDS011;22600;48.186;11.526;2022-10-16T09:39:50;0.70;;;0.60;;
34639;SDS011;22600;48.186;11.526;2022-10-16T09:42:21;0.80;;;0.70;;
34639;SDS011;22600;48.186;11.526;2022-10-16T09:44:51;0.80;;;0.63;;
34639;SDS011;22600;48.186;11.526;2022-10-16T09:47:19;0.95;;;0.60;;
34639;SDS011;22600;48.186;11.526;2022-10-16T09:49:51;0.70;;;0.60;;
34639;SDS011;22600;48.186;11.526;2022-10-16T09:52:18;0.80;;;0.60;;
34639;SDS011;22600;48.186;11.526;2022-10-16T09:57:16;0.80;;;0.60;;
34639;SDS011;22600;48.186;11.526;2022-10-16T09:59:48;0.70;;;0.60;;
34639;SDS011;22600;48.186;11.526;2022-10-16T10:02:19;0.68;;;0.50;;
34639;SDS011;22600;48.186;11.526;2022-10-16T10:04:54;0.60;;;0.57;;
34639;SDS011;22600;48.186;11.526;2022-10-16T10:07:23;0.88;;;0.60;;
34639;SDS011;22600;48.186;11.526;2022-10-16T10:09:51;0.50;;;0.50;;
34639;SDS011;22600;48.186;11.526;2022-10-16T10:14:49;0.70;;;0.57;;
34639;SDS011;22600;48.186;11.526;2022-10-16T10:17:24;0.80;;;0.60;;
34639;SDS011;22600;48.186;11.526;2022-10-16T10:19:57;0.68;;;0.57;;
34639;SDS011;22600;48.186;11.526;2022-10-16T10:22:41;0.90;;;0.70;;
34639;SDS011;22600;48.186;11.526;2022-10-16T10:30:19;0.57;;;0.57;;
34639;SDS011;22600;48.186;11.526;2022-10-16T10:41:51;0.57;;;0.57;;
34639;SDS011;22600;48.186;11.526;2022-10-16T10:57:22;0.77;;;0.52;;
34639;SDS011;22600;48.186;11.526;2022-10-16T11:02:48;0.60;;;0.50;;
34639;SDS011;22600;48.186;11.526;2022-10-16T11:10:47;0.60;;;0.57;;
34639;SDS011;22600;48.186;11.526;2022-10-16T11:16:13;0.75;;;0.60;;
34639;SDS011;22600;48.186;11.526;2022-10-16T11:21:50;0.70;;;0.60;;
34639;SDS011;22600;48.186;11.526;2022-10-16T11:24:42;1.00;;;0.60;;
34639;SDS011;22600;48.186;11.526;2022-10-16T11:27:21;0.60;;;0.50;;
34639;SDS011;22600;48.186;11.526;2022-10-16T11:29:57;0.70;;;0.60;;
34639;SDS011;22600;48.186;11.526;2022-10-16T11:32:31;0.60;;;0.50;;
34639;SDS011;22600;48.186;11.526;2022-10-16T11:35:12;0.75;;;0.60;;
34639;SDS011;22600;48.186;11.526;2022-10-16T11:37:50;0.80;;;0.70;;
34639;SDS011;22600;48.186;11.526;2022-10-16T11:40:19;0.85;;;0.60;;
34639;SDS011;22600;48.186;11.526;2022-10-16T11:42:51;0.80;;;0.50;;
34639;SDS011;22600;48.186;11.526;2022-10-16T11:45:35;0.70;;;0.60;;
34639;SDS011;22600;48.186;11.526;2022-10-16T11:56:11;0.60;;;0.50;;
34639;SDS011;22600;48.186;11.526;2022-10-16T11:58:59;0.60;;;0.50;;
34639;SDS011;22600;48.186;11.526;2022-10-16T12:01:48;0.60;;;0.60;;
34639;SDS011;22600;48.186;11.526;2022-10-16T12:07:11;0.80;;;0.60;;
34639;SDS011;22600;48.186;11.526;2022-10-16T12:09:40;0.70;;;0.60;;
34639;SDS011;22600;48.186;11.526;2022-10-16T12:12:23;0.80;;;0.70;;
34639;SDS011;22600;48.186;11.526;2022-10-16T12:17:52;0.70;;;0.40;;
34639;SDS011;22600;48.186;11.526;2022-10-16T12:20:53;0.70;;;0.60;;
34639;SDS011;22600;48.186;11.526;2022-10-16T12:23:19;0.73;;;0.60;;
34639;SDS011;22600;48.186;11.526;2022-10-16T12:25:53;0.63;;;0.57;;
34639;SDS011;22600;48.186;11.526;2022-10-16T12:28:21;0.50;;;0.50;;
34639;SDS011;22600;48.186;11.526;2022-10-16T12:31:03;0.77;;;0.60;;
34639;SDS011;22600;48.186;11.526;2022-10-16T12:33:34;0.87;;;0.60;;
34639;SDS011;22600;48.186;11.526;2022-10-16T12:36:45;0.57;;;0.50;;
34639;SDS011;22600;48.186;11.526;2022-10-16T12:39:01;0.70;;;0.50;;
34639;SDS011;22600;48.186;11.526;2022-10-16T12:41:32;0.80;;;0.60;;
34639;SDS011;22600;48.186;11.526;2022-10-16T12:43:59;0.80;;;0.60;;
34639;SDS011;22600;48.186;11.526;2022-10-16T12:49:04;0.70;;;0.60;;
34639;SDS011;22600;48.186;11.526;2022-10-16T12:51:50;0.70;;;0.50;;
34639;SDS011;22600;48.186;11.526;2022-10-16T12:54:19;0.70;;;0.60;;
34639;SDS011;22600;48.186;11.526;2022-10-16T13:08:20;0.60;;;0.60;;
34639;SDS011;22600;48.186;11.526;2022-10-16T13:19:38;0.45;;;0.45;;
34639;SDS011;22600;48.186;11.526;2022-10-16T13:22:13;0.70;;;0.50;;
34639;SDS011;22600;48.186;11.526;2022-10-16T13:32:47;0.65;;;0.52;;
34639;SDS011;22600;48.186;11.526;2022-10-16T13:35:19;0.65;;;0.55;;
34639;SDS011;22600;48.186;11.526;2022-10-16T13:40:48;0.60;;;0.55;;
34639;SDS011;22600;48.186;11.526;2022-10-16T13:43:16;0.60;;;0.60;;
34639;SDS011;22600;48.186;11.526;2022-10-16T13:45:52;0.60;;;0.45;;
34639;SDS011;22600;48.186;11.526;2022-10-16T13:48:18;0.50;;;0.50;;
34639;SDS011;22600;48.186;11.526;2022-10-16T13:50:44;0.80;;;0.60;;
34639;SDS011;22600;48.186;11.526;2022-10-16T13:53:13;0.70;;;0.50;;
34639;SDS011;22600;48.186;11.526;2022-10-16T13:55:39;0.70;;;0.50;;
34639;SDS011;22600;48.186;11.526;2022-10-16T13:58:10;0.60;;;0.50;;
34639;SDS011;22600;48.186;11.526;2022-10-16T14:00:38;0.77;;;0.50;;
34639;SDS011;22600;48.186;11.526;2022-10-16T14:03:05;0.43;;;0.40;;
34639;SDS011;22600;48.186;11.526;2022-10-16T14:05:42;0.70;;;0.50;;
34639;SDS011;22600;48.186;11.526;2022-10-16T14:08:12;0.70;;;0.60;;
34639;SDS011;22600;48.186;11.526;2022-10-16T14:10:38;0.63;;;0.57;;
34639;SDS011;22600;48.186;11.526;2022-10-16T14:13:05;0.65;;;0.55;;
34639;SDS011;22600;48.186;11.526;2022-10-16T14:15:32;0.50;;;0.40;;
34639;SDS011;22600;48.186;11.526;2022-10-16T14:18:00;0.55;;;0.40;;
34639;SDS011;22600;48.186;11.526;2022-10-16T14:20:28;0.70;;;0.60;;
34639;SDS011;22600;48.186;11.526;2022-10-16T14:23:01;0.68;;;0.60;;
34639;SDS011;22600;48.186;11.526;2022-10-16T14:25:43;0.60;;;0.45;;
34639;SDS011;22600;48.186;11.526;2022-10-16T14:28:17;0.50;;;0.50;;
34639;SDS011;22600;48.186;11.526;2022-10-16T14:30:54;0.80;;;0.52;;
34639;SDS011;22600;48.186;11.526;2022-10-16T14:33:23;1.30;;;0.50;;
34639;SDS011;22600;48.186;11.526;2022-10-16T14:38:30;0.40;;;0.40;;
34639;SDS011;22600;48.186;11.526;2022-10-16T14:40:58;0.63;;;0.50;;
34639;SDS011;22600;48.186;11.526;2022-10-16T14:43:40;0.60;;;0.50;;
34639;SDS011;22600;48.186;11.526;2022-10-16T14:46:20;0.70;;;0.60;;
34639;SDS011;22600;48.186;11.526;2022-10-16T14:48:55;0.60;;;0.50;;
34639;SDS011;22600;48.186;11.526;2022-10-16T14:51:25;0.52;;;0.50;;
34639;SDS011;22600;48.186;11.526;2022-10-16T14:53:51;0.57;;;0.43;;
34639;SDS011;22600;48.186;11.526;2022-10-16T14:56:24;0.50;;;0.50;;
34639;SDS011;22600;48.186;11.526;2022-10-16T14:58:53;0.50;;;0.50;;
34639;SDS011;22600;48.186;11.526;2022-10-16T15:01:20;0.52;;;0.52;;
34639;SDS011;22600;48.186;11.526;2022-10-16T15:03:46;0.80;;;0.50;;
34639;SDS011;22600;48.186;11.526;2022-10-16T15:06:15;0.73;;;0.52;;
34639;SDS011;22600;48.186;11.526;2022-10-16T15:08:41;0.60;;;0.50;;
34639;SDS011;22600;48.186;11.526;2022-10-16T15:11:14;0.52;;;0.47;;
34639;SDS011;22600;48.186;11.526;2022-10-16T15:13:41;0.68;;;0.50;;
34639;SDS011;22600;48.186;11.526;2022-10-16T15:16:16;0.85;;;0.50;;
34639;SDS011;22600;48.186;11.526;2022-10-16T15:18:42;0.47;;;0.43;;
34639;SDS011;22600;48.186;11.526;2022-10-16T15:21:08;0.65;;;0.50;;
34639;SDS011;22600;48.186;11.526;2022-10-16T15:23:48;0.50;;;0.50;;
34639;SDS011;22600;48.186;11.526;2022-10-16T15:26:14;0.52;;;0.50;;
34639;SDS011;22600;48.186;11.526;2022-10-16T15:28:40;0.68;;;0.50;;
34639;SDS011;22600;48.186;11.526;2022-10-16T15:31:06;0.75;;;0.47;;
34639;SDS011;22600;48.186;11.526;2022-10-16T15:33:31;0.70;;;0.50;;
34639;SDS011;22600;48.186;11.526;2022-10-16T15:35:59;0.45;;;0.45;;
34639;SDS011;22600;48.186;11.526;2022-10-16T15:38:25;0.47;;;0.47;;
34639;SDS011;22600;48.186;11.526;2022-10-16T15:40:52;0.50;;;0.50;;
34639;SDS011;22600;48.186;11.526;2022-10-16T15:43:18;0.50;;;0.40;;
34639;SDS011;22600;48.186;11.526;2022-10-16T15:45:44;0.55;;;0.43;;
34639;SDS011;22600;48.186;11.526;2022-10-16T15:48:23;0.80;;;0.50;;
34639;SDS011;22600;48.186;11.526;2022-10-16T15:50:48;0.40;;;0.40;;
34639;SDS011;22600;48.186;11.526;2022-10-16T15:53:14;0.60;;;0.50;;
34639;SDS011;22600;48.186;11.526;2022-10-16T15:55:39;0.47;;;0.43;;
34639;SDS011;22600;48.186;11.526;2022-10-16T15:58:05;0.65;;;0.50;;
34639;SDS011;22600;48.186;11.526;2022-10-16T16:00:30;0.68;;;0.50;;
34639;SDS011;22600;48.186;11.526;2022-10-16T16:02:56;0.60;;;0.47;;
34639;SDS011;22600;48.186;11.526;2022-10-16T16:05:22;0.50;;;0.40;;
34639;SDS011;22600;48.186;11.526;2022-10-16T16:07:48;0.80;;;0.52;;
34639;SDS011;22600;48.186;11.526;2022-10-16T16:10:14;0.63;;;0.47;;
34639;SDS011;22600;48.186;11.526;2022-10-16T16:12:40;0.47;;;0.47;;
34639;SDS011;22600;48.186;11.526;2022-10-16T16:15:06;0.40;;;0.40;;
34639;SDS011;22600;48.186;11.526;2022-10-16T16:17:33;0.43;;;0.40;;
34639;SDS011;22600;48.186;11.526;2022-10-16T16:19:59;0.50;;;0.40;;
34639;SDS011;22600;48.186;11.526;2022-10-16T16:22:25;0.60;;;0.50;;
34639;SDS011;22600;48.186;11.526;2022-10-16T16:24:51;0.52;;;0.50;;
34639;SDS011;22600;48.186;11.526;2022-10-16T16:27:17;0.50;;;0.40;;
34639;SDS011;22600;48.186;11.526;2022-10-16T16:29:44;0.50;;;0.50;;
34639;SDS011;22600;48.186;11.526;2022-10-16T16:32:10;0.50;;;0.50;;
34639;SDS011;22600;48.186;11.526;2022-10-16T16:34:35;0.35;;;0.32;;
34639;SDS011;22600;48.186;11.526;2022-10-16T16:37:01;0.60;;;0.50;;
34639;SDS011;22600;48.186;11.526;2022-10-16T16:39:27;0.60;;;0.50;;
34639;SDS011;22600;48.186;11.526;2022-10-16T16:41:54;0.40;;;0.40;;
34639;SDS011;22600;48.186;11.526;2022-10-16T16:44:21;0.50;;;0.50;;
34639;SDS011;22600;48.186;11.526;2022-10-16T16:46:47;1.05;;;0.50;;
34639;SDS011;22600;48.186;11.526;2022-10-16T16:49:13;0.40;;;0.40;;
34639;SDS011;22600;48.186;11.526;2022-10-16T16:51:40;0.40;;;0.40;;
34639;SDS011;22600;48.186;11.526;2022-10-16T16:54:06;0.50;;;0.40;;
34639;SDS011;22600;48.186;11.526;2022-10-16T16:56:32;0.60;;;0.40;;
34639;SDS011;22600;48.186;11.526;2022-10-16T16:58:58;0.38;;;0.38;;
34639;SDS011;22600;48.186;11.526;2022-10-16T17:01:25;0.60;;;0.50;;
34639;SDS011;22600;48.186;11.526;2022-10-16T17:03:52;0.47;;;0.45;;
34639;SDS011;22600;48.186;11.526;2022-10-16T17:06:20;0.50;;;0.40;;
34639;SDS011;22600;48.186;11.526;2022-10-16T17:08:48;0.68;;;0.50;;
34639;SDS011;22600;48.186;11.526;2022-10-16T17:11:16;0.50;;;0.50;;